Flight Track Log - Related Links

Times and Time Zones

All times are in EDT time to prevent confusion due to time zone crossing. See the SWA3937 flight status page for this flight to view local times or setup timezone preferences in your user account.


Time Position Orientation Groundspeed Altitude Reporting Facility
EDT Latitude Longitude Course Direction KTS MPH feet Rate Location/Type
Tue 01:05:40 PM 34.0322 -117.6247 145° Southeast 160 184 2,700  Level Los Angeles Center
Tue 01:06:36 PM 33.9833 -117.5833 145° Southeast 240 276 4,600 2,213 Climbing Southern California TRACON
Tue 01:07:42 PM 33.9167 -117.5167 140° Southeast 281 323 7,200 2,558 Climbing Southern California TRACON
Tue 01:08:45 PM 33.8458 -117.4700 151° Southeast 299 344 10,100 2,688 Climbing Los Angeles Center
Tue 01:09:47 PM 33.7664 -117.4031 145° Southeast 345 397 12,800 2,352 Climbing Los Angeles Center
Tue 01:10:50 PM 33.7211 -117.2611 111° Southeast 409 471 15,000 1,920 Climbing Los Angeles Center
Tue 01:11:52 PM 33.7092 -117.1167 96° East 432 497 16,800 1,839 Climbing Los Angeles Center
Tue 01:12:54 PM 33.6983 -116.9778 95° East 421 484 18,800 1,113 Climbing Los Angeles Center
Tue 01:13:56 PM 33.6883 -116.8456 95° East 404 465 19,100 1,065 Climbing Los Angeles Center
Tue 01:14:58 PM 33.6761 -116.7144 96° East 396 456 21,000 919 Climbing Los Angeles Center
Tue 01:16:00 PM 33.6658 -116.5769 95° East 406 467 21,000 968 Level Los Angeles Center
Tue 01:17:02 PM 33.6500 -116.4139 97° East 408 470 23,000 1,887 Climbing Los Angeles Center
Tue 01:18:04 PM 33.6386 -116.2764 96° East 409 471 24,900 968 Climbing Los Angeles Center
Tue 01:19:06 PM 33.6269 -116.1214 95° East 450 518 25,000 48 Climbing Los Angeles Center
Tue 01:20:08 PM 33.6236 -115.9636 91° East 467 537 25,000 672 Level Los Angeles Center
Tue 01:21:11 PM 33.6208 -115.8075 91° East 468 539 26,400 960 Climbing Los Angeles Center
Tue 01:22:13 PM 33.6172 -115.6475 92° East 477 549 27,000 1,016 Climbing Los Angeles Center
Tue 01:23:15 PM 33.6119 -115.4528 92° East 486 559 28,500 1,887 Climbing Los Angeles Center
Tue 01:24:17 PM 33.6067 -115.2922 92° East 483 556 30,900 1,210 Climbing Los Angeles Center
Tue 01:25:19 PM 33.6039 -115.1350 91° East 476 548 31,000  Climbing Los Angeles Center
Tue 01:26:21 PM 33.5994 -114.9794 92° East 468 539 30,900 -484 Descending Los Angeles Center
Tue 01:27:23 PM 33.5958 -114.8206 92° East 476 548 30,000 -919 Descending Los Angeles Center
Tue 01:28:25 PM 33.5756 -114.6633 99° East 478 550 29,000 -1,016 Descending Los Angeles Center
Tue 01:29:27 PM 33.5450 -114.4919 102° East 478 550 27,900 -1,016 Descending Albuquerque Center
Tue 01:30:29 PM 33.5156 -114.3375 103° East 476 548 26,900 -968 Descending Albuquerque Center
Tue 01:31:31 PM 33.4833 -114.1858 104° East 472 543 25,900 -919 Descending Albuquerque Center
Tue 01:32:33 PM 33.4550 -114.0367 103° East 465 535 25,000 -435 Descending Albuquerque Center
Tue 01:33:35 PM 33.4186 -113.8617 104° East 454 522 25,000  Level Albuquerque Center
Tue 01:34:37 PM 33.3900 -113.7147 103° East 453 521 25,000 -677 Level Albuquerque Center
Tue 01:35:39 PM 33.3597 -113.5708 104° East 448 516 23,600 -1,500 Descending Albuquerque Center
Tue 01:36:41 PM 33.3308 -113.4278 104° East 443 510 21,900 -1,790 Descending Albuquerque Center
Tue 01:37:43 PM 33.3033 -113.2928 104° East 427 491 19,900 -1,984 Descending Albuquerque Center
Tue 01:38:45 PM 33.2758 -113.1600 104° East 416 479 17,800 -1,403 Descending Albuquerque Center
Tue 01:39:47 PM 33.2747 -113.0256 91° East 403 464 17,000 -774 Descending Albuquerque Center
Tue 01:40:49 PM 33.2792 -112.8708 88° East 392 451 16,200 -484 Descending Albuquerque Center
Tue 01:41:51 PM 33.2822 -112.7478 88° East 378 435 16,000 -823 Descending Albuquerque Center
Tue 01:42:53 PM 33.2828 -112.6283 90° East 365 420 14,500 -1,500 Descending Albuquerque Center
Tue 01:43:55 PM 33.2881 -112.5036 87° East 352 405 12,900 -1,512 Descending Albuquerque Center
Tue 01:44:56 PM 33.2911 -112.3894 88° East 348 400 11,400 -1,268 Descending Albuquerque Center
Tue 01:45:58 PM 33.2975 -112.2778 86° East 339 390 10,300 -968 Descending Albuquerque Center
Tue 01:47:00 PM 33.3056 -112.1736 85° East 320 368 9,400 -774 Descending Albuquerque Center
Tue 01:48:02 PM 33.3147 -112.0781 83° East 293 337 8,700 -968 Descending Albuquerque Center
Tue 01:49:04 PM 33.3383 -111.9875 73° East 288 331 7,400 -1,065 Descending Albuquerque Center
Tue 01:50:06 PM 33.3456 -111.8839 85° East 255 293 6,500 -1,113 Descending Albuquerque Center
Tue 01:51:08 PM 33.3444 -111.8058 91° East 240 276 5,100 -976 Descending Albuquerque Center
Tue 01:52:09 PM 33.3664 -111.7456 66° East 235 270 4,500 -537 Descending Albuquerque Center
Tue 01:53:11 PM 33.4156 -111.7711 337° Northwest 210 242 4,000 -290 Descending Albuquerque Center
Tue 01:54:13 PM 33.4289 -111.8261 286° West 179 206 3,900 -484 Descending Albuquerque Center
Tue 01:55:15 PM 33.4292 -111.8861 270° West 179 206 3,000 -823 Descending Albuquerque Center
Tue 01:56:17 PM 33.4292 -111.9389 270° West 161 185 2,200 -829 Descending Albuquerque Center
Tue 01:57:18 PM 33.4286 -111.9969 269° West 144 166 1,300 -885 Descending Albuquerque Center

Login

Don't have an account? Register now (free) for customized features, flight alerts, and more!